One Hundred Palms, California
Current Conditions -  °F | °C
As of 10:56 PM on Sunday 21 Dec 2014 (Local Time) from KNJK Reporting Station
Clear Clear  
Wind Chill: 52°   Ceiling: Unl
Heat Index: 52°   Visibility: 10mi
Dew Point: 45°   Wind: 6mph
Humidity: 77%   Direction: 210°SSW
Pressure: 30.04"   Gusts: NA
Location:  33.093°N, 116.06°W
Report Text: KNJK 220656Z AUTO 21005KT 10SM CLR 11/07 A3004 RMK AO2 SLP187 T01110072 $
Loading
Personal Weather Stations






























Interactive Weather Map New forecast layout! Learn more

10-Day Weather Forecast

Advertisements
Track Severe Weather on mobile